NOZ1829 ESSA-LFMN
Flight info
| Callsign | NOZ1829 |
|---|---|
| Flight time | N/A |
| Altitude | 34000 |
| Route | NOSLI N850 ABAMA DCT BAGOS DCT HAM DCT MAWEQ DCT ASBON/N0460F350 DCT ELVET DCT OBORN DCT MOROK DCT GILIR DCT GEVEA DCT KOGAS/N0461F290 DCT MEDAM DCT VEVAR |
| Aircraft | B738/M-SDE2E3FGHIRWXY/LB1 |
Departure
| Time | N/A |
|---|---|
| Airport | Stockholm-Arlanda Airport (ESSA) |
Arrival
| Time | 2026-05-07 20:01 |
|---|---|
| Airport | Nice-Côte d'Azur Airport (LFMN) |
| Time | Latitude | Longitude | Altitude | Speed | Heading |
|---|---|---|---|---|---|
| 2026-05-07 19:36 | 45.00866 | 6.98023 | 33963 ft | 437 kts | 180° |
| 2026-05-07 19:37 | 44.97872 | 6.98499 | 33434 ft | 431 kts | 179° |
| 2026-05-07 19:37 | 44.94983 | 6.98952 | 32561 ft | 434 kts | 180° |
| 2026-05-07 19:37 | 44.91964 | 6.99189 | 31510 ft | 439 kts | 181° |
| 2026-05-07 19:37 | 44.88892 | 6.99691 | 30635 ft | 446 kts | 176° |
| 2026-05-07 19:38 | 44.85843 | 7.00314 | 30265 ft | 438 kts | 177° |
| 2026-05-07 19:38 | 44.82845 | 7.00867 | 29767 ft | 431 kts | 178° |
| 2026-05-07 19:38 | 44.79882 | 7.01349 | 29121 ft | 427 kts | 178° |
| 2026-05-07 19:38 | 44.76939 | 7.01913 | 28484 ft | 425 kts | 175° |
| 2026-05-07 19:39 | 44.74029 | 7.02595 | 27928 ft | 421 kts | 174° |
| 2026-05-07 19:39 | 44.71188 | 7.03304 | 27387 ft | 418 kts | 174° |
| 2026-05-07 19:39 | 44.68336 | 7.04020 | 26832 ft | 414 kts | 174° |
| 2026-05-07 19:39 | 44.65503 | 7.04721 | 26296 ft | 411 kts | 174° |
| 2026-05-07 19:40 | 44.62695 | 7.05404 | 25766 ft | 407 kts | 174° |
| 2026-05-07 19:40 | 44.59900 | 7.06074 | 25247 ft | 404 kts | 174° |
| 2026-05-07 19:40 | 44.57139 | 7.06730 | 24736 ft | 401 kts | 174° |
| 2026-05-07 19:40 | 44.54392 | 7.07379 | 24254 ft | 398 kts | 174° |
| 2026-05-07 19:41 | 44.51675 | 7.08018 | 23760 ft | 395 kts | 173° |
| 2026-05-07 19:41 | 44.48969 | 7.08655 | 23202 ft | 392 kts | 173° |
| 2026-05-07 19:41 | 44.46287 | 7.09287 | 22592 ft | 390 kts | 173° |
| 2026-05-07 19:41 | 44.43625 | 7.09914 | 22064 ft | 386 kts | 173° |
| 2026-05-07 19:42 | 44.41020 | 7.10525 | 21562 ft | 383 kts | 173° |
| 2026-05-07 19:42 | 44.38405 | 7.11139 | 21019 ft | 380 kts | 173° |
| 2026-05-07 19:42 | 44.35794 | 7.11753 | 20512 ft | 378 kts | 173° |
| 2026-05-07 19:42 | 44.33209 | 7.12361 | 20114 ft | 374 kts | 172° |
| 2026-05-07 19:43 | 44.30624 | 7.12966 | 20076 ft | 379 kts | 172° |
| 2026-05-07 19:43 | 44.28039 | 7.13571 | 20022 ft | 374 kts | 172° |
| 2026-05-07 19:43 | 44.25478 | 7.14170 | 20034 ft | 374 kts | 172° |
| 2026-05-07 19:43 | 44.22933 | 7.14766 | 19858 ft | 367 kts | 172° |
| 2026-05-07 19:44 | 44.20438 | 7.15546 | 19412 ft | 368 kts | 163° |
| 2026-05-07 19:44 | 44.18053 | 7.16851 | 18891 ft | 369 kts | 159° |
| 2026-05-07 19:44 | 44.15728 | 7.18267 | 18389 ft | 369 kts | 158° |
| 2026-05-07 19:44 | 44.13389 | 7.19714 | 17871 ft | 366 kts | 158° |
| 2026-05-07 19:45 | 44.11066 | 7.21137 | 17379 ft | 362 kts | 158° |
| 2026-05-07 19:45 | 44.08758 | 7.22527 | 16866 ft | 360 kts | 158° |
| 2026-05-07 19:45 | 44.06464 | 7.23891 | 16372 ft | 358 kts | 158° |
| 2026-05-07 19:45 | 44.04181 | 7.25236 | 15895 ft | 355 kts | 158° |
| 2026-05-07 19:46 | 44.01908 | 7.26568 | 15425 ft | 353 kts | 158° |
| 2026-05-07 19:46 | 43.99656 | 7.27884 | 14957 ft | 350 kts | 158° |
| 2026-05-07 19:46 | 43.97439 | 7.29179 | 14523 ft | 348 kts | 158° |
| 2026-05-07 19:46 | 43.95210 | 7.30478 | 14077 ft | 346 kts | 158° |
| 2026-05-07 19:47 | 43.92992 | 7.31771 | 13622 ft | 345 kts | 158° |
| 2026-05-07 19:47 | 43.90787 | 7.33055 | 13102 ft | 343 kts | 158° |
| 2026-05-07 19:47 | 43.88590 | 7.34334 | 12660 ft | 340 kts | 158° |
| 2026-05-07 19:47 | 43.86416 | 7.35598 | 12218 ft | 338 kts | 158° |
| 2026-05-07 19:48 | 43.84251 | 7.36855 | 11759 ft | 336 kts | 158° |
| 2026-05-07 19:48 | 43.82212 | 7.38408 | 11301 ft | 335 kts | 143° |
| 2026-05-07 19:48 | 43.80404 | 7.40441 | 10900 ft | 333 kts | 140° |
| 2026-05-07 19:48 | 43.78659 | 7.42459 | 10802 ft | 320 kts | 140° |
| 2026-05-07 19:49 | 43.76997 | 7.44367 | 10710 ft | 308 kts | 141° |
| 2026-05-07 19:49 | 43.75372 | 7.46212 | 10640 ft | 297 kts | 141° |
| 2026-05-07 19:49 | 43.73799 | 7.47983 | 10566 ft | 286 kts | 141° |
| 2026-05-07 19:49 | 43.72272 | 7.49691 | 10430 ft | 278 kts | 141° |
| 2026-05-07 19:50 | 43.70773 | 7.51363 | 10162 ft | 277 kts | 141° |
| 2026-05-07 19:50 | 43.69220 | 7.52918 | 9840 ft | 276 kts | 156° |
| 2026-05-07 19:50 | 43.67343 | 7.53318 | 9495 ft | 276 kts | 189° |
| 2026-05-07 19:50 | 43.65615 | 7.52258 | 9196 ft | 274 kts | 217° |
| 2026-05-07 19:51 | 43.64176 | 7.50546 | 8897 ft | 273 kts | 222° |
| 2026-05-07 19:51 | 43.62786 | 7.48762 | 8584 ft | 272 kts | 223° |
| 2026-05-07 19:51 | 43.61408 | 7.46976 | 8287 ft | 271 kts | 223° |
| 2026-05-07 19:51 | 43.60036 | 7.45192 | 8011 ft | 270 kts | 223° |
| 2026-05-07 19:52 | 43.58673 | 7.43417 | 7722 ft | 269 kts | 223° |
| 2026-05-07 19:52 | 43.57335 | 7.41675 | 7439 ft | 268 kts | 223° |
| 2026-05-07 19:52 | 43.55985 | 7.39918 | 7158 ft | 267 kts | 223° |
| 2026-05-07 19:52 | 43.54637 | 7.38165 | 6887 ft | 266 kts | 223° |
| 2026-05-07 19:53 | 43.53294 | 7.36422 | 6612 ft | 265 kts | 223° |
| 2026-05-07 19:53 | 43.51954 | 7.34684 | 6329 ft | 264 kts | 223° |
| 2026-05-07 19:53 | 43.50618 | 7.32953 | 6045 ft | 262 kts | 223° |
| 2026-05-07 19:53 | 43.49290 | 7.31230 | 5772 ft | 261 kts | 223° |
| 2026-05-07 19:54 | 43.47969 | 7.29514 | 5497 ft | 260 kts | 223° |
| 2026-05-07 19:54 | 43.46661 | 7.27809 | 5222 ft | 259 kts | 223° |
| 2026-05-07 19:54 | 43.45357 | 7.26107 | 4962 ft | 257 kts | 223° |
| 2026-05-07 19:54 | 43.44085 | 7.24445 | 4901 ft | 246 kts | 223° |
| 2026-05-07 19:55 | 43.42975 | 7.22756 | 4795 ft | 233 kts | 242° |
| 2026-05-07 19:55 | 43.42756 | 7.20682 | 4673 ft | 220 kts | 283° |
| 2026-05-07 19:55 | 43.43402 | 7.18821 | 4468 ft | 213 kts | 307° |
| 2026-05-07 19:55 | 43.44415 | 7.17428 | 4351 ft | 202 kts | 326° |
| 2026-05-07 19:56 | 43.45638 | 7.16606 | 4261 ft | 190 kts | 339° |
| 2026-05-07 19:56 | 43.46882 | 7.16227 | 4145 ft | 177 kts | 358° |
| 2026-05-07 19:56 | 43.48095 | 7.16134 | 3924 ft | 173 kts | 357° |
| 2026-05-07 19:56 | 43.49292 | 7.16029 | 3659 ft | 172 kts | 357° |
| 2026-05-07 19:57 | 43.50482 | 7.15920 | 3379 ft | 170 kts | 356° |
| 2026-05-07 19:57 | 43.51662 | 7.15814 | 3015 ft | 170 kts | 356° |
| 2026-05-07 19:57 | 43.52836 | 7.15705 | 2684 ft | 168 kts | 357° |
| 2026-05-07 19:57 | 43.53753 | 7.15619 | 2414 ft | 166 kts | 357° |
| 2026-05-07 19:58 | 43.54906 | 7.15510 | 2055 ft | 166 kts | 357° |
| 2026-05-07 19:58 | 43.56061 | 7.15400 | 2019 ft | 166 kts | 357° |
| 2026-05-07 19:58 | 43.57218 | 7.15294 | 1991 ft | 166 kts | 357° |
| 2026-05-07 19:58 | 43.58391 | 7.15188 | 1758 ft | 171 kts | 357° |
| 2026-05-07 19:59 | 43.59574 | 7.15068 | 1430 ft | 170 kts | 356° |
| 2026-05-07 19:59 | 43.60736 | 7.14977 | 1174 ft | 158 kts | 2° |
| 2026-05-07 19:59 | 43.61741 | 7.15350 | 929 ft | 148 kts | 36° |
| 2026-05-07 19:59 | 43.62418 | 7.16366 | 798 ft | 144 kts | 53° |
| 2026-05-07 20:00 | 43.63060 | 7.17445 | 614 ft | 146 kts | 47° |
| 2026-05-07 20:00 | 43.63768 | 7.18427 | 423 ft | 142 kts | 46° |
| 2026-05-07 20:00 | 43.64454 | 7.19388 | 269 ft | 140 kts | 46° |
| 2026-05-07 20:00 | 43.65134 | 7.20337 | 90 ft | 139 kts | 46° |
| 2026-05-07 20:01 | 43.65798 | 7.21254 | 27 ft | 118 kts | 45° |
| 2026-05-07 20:01 | 43.66219 | 7.21834 | 21 ft | 55 kts | 44° |
| 2026-05-07 20:01 | 43.66368 | 7.22037 | 23 ft | 21 kts | 45° |
| 2026-05-07 20:01 | 43.66476 | 7.22187 | 23 ft | 22 kts | 45° |
| 2026-05-07 20:02 | 43.66585 | 7.22337 | 20 ft | 22 kts | 45° |
| 2026-05-07 20:02 | 43.66678 | 7.22465 | 20 ft | 10 kts | 40° |
| 2026-05-07 20:02 | 43.66745 | 7.22480 | 20 ft | 10 kts | 334° |
| 2026-05-07 20:02 | 43.66798 | 7.22418 | 20 ft | 10 kts | 315° |
| 2026-05-07 20:03 | 43.66811 | 7.22333 | 21 ft | 10 kts | 246° |
| 2026-05-07 20:03 | 43.66766 | 7.22266 | 21 ft | 9 kts | 224° |
| 2026-05-07 20:03 | 43.66720 | 7.22203 | 21 ft | 9 kts | 225° |
| 2026-05-07 20:03 | 43.66670 | 7.22134 | 21 ft | 11 kts | 225° |
| 2026-05-07 20:04 | 43.66618 | 7.22063 | 21 ft | 10 kts | 225° |
| 2026-05-07 20:04 | 43.66585 | 7.22003 | 21 ft | 6 kts | 263° |
| 2026-05-07 20:04 | 43.66600 | 7.21962 | 22 ft | 0 kts | 315° |
| 2026-05-07 20:05 | 43.66602 | 7.21959 | 22 ft | 4 kts | 315° |
| 2026-05-07 20:06 | 43.66648 | 7.21883 | 21 ft | 12 kts | 277° |
| 2026-05-07 20:06 | 43.66598 | 7.21795 | 21 ft | 12 kts | 224° |
| 2026-05-07 20:06 | 43.66541 | 7.21716 | 21 ft | 11 kts | 225° |
| 2026-05-07 20:06 | 43.66485 | 7.21639 | 21 ft | 11 kts | 225° |
| 2026-05-07 20:07 | 43.66431 | 7.21563 | 21 ft | 11 kts | 229° |
| 2026-05-07 20:07 | 43.66408 | 7.21501 | 21 ft | 7 kts | 278° |
| 2026-05-07 20:07 | 43.66432 | 7.21469 | 21 ft | 2 kts | 323° |
| 2026-05-07 20:07 | 43.66444 | 7.21455 | 22 ft | 2 kts | 320° |
| 2026-05-07 20:08 | 43.66447 | 7.21453 | 22 ft | 0 kts | 319° |